Port Jefferson, NY (11777)

7:47 AM EDT on May 30, 2015 (GMT -0400)
Canyon Creek | | Change Station
CLOSE
Current Station
Personal Weather Station
Location: Port Jefferson, NY
Elevation: 233 ft
Nearby Weather Stations

Elev 233 ft 40.94 °N, 73.06 °W | Updated 7 seconds ago

Overcast
Overcast
66.6 °F
Feels Like 66.6 °F
N
7.4
Wind Variable Wind from NW
Gusts 12.1 mph

Today
High -- | Low -- °F
--% Chance of Precip.
Yesterday
High -- | Low -- °F
Precip. -- in
5:23 AM 8:16 PM
Waxing Gibbous, 90% visible
Pressure 30.22 in
Visibility 1.0 miles
Clouds Mostly Cloudy 300 ft
Overcast 25000 ft
Dew Point 66 °F
Humidity 99%
Rainfall 0.00 in
Snow Depth Not available.
UV 0 out of 12
Pollen 9.90 out of 12
Air Quality Not available.
Flu Activity Sporadic
METAR KISP 301056Z 21007KT 1SM R06/P6000FT BR BKN003 OVC250 18/18 A3022 RMK AO2 SFC VIS 4 SLP233 T01830178

More Conditions Fewer Conditions

Pressure 30.22 in
Visibility 1.0 miles
Clouds Mostly Cloudy 300 ft
Overcast 25000 ft
Dew Point 66 °F
Humidity 99%
Rainfall 0.00 in
Snow Depth Not available.
UV 0 out of 12
Pollen 9.90 out of 12
Air Quality Not available.
Flu Activity Sporadic
METAR KISP 301056Z 21007KT 1SM R06/P6000FT BR BKN003 OVC250 18/18 A3022 RMK AO2 SFC VIS 4 SLP233 T01830178

More Conditions Fewer Conditions

10-Day Weather Forecast

Almanac

Astronomy

May. 30, 2015 Rise Set
Actual Time
Civil Twilight
Nautical Twilight
Astronomical Twilight
Moon
Length of Visible Light
Length of Day
Tomorrow will be .
, % of the Moon is Illuminated

Today's Extremes

State Highs State Lows

Community

WunderPhotos

Upload Photos

1,825,484 photos uploaded!

WunderBlogs® & News

Nearby

Air Quality

  Air Quality AQ Index Pollutant
Not available.

Snow Depth

Station Depth Elevation

Earthquake Activity

City Distance Mag. Time & Date
Minimum magnitude displayed is 2.5.

Coastal Water Temperatures

Place Temperature

Stations

Nearby Weather Stations

Station Location Temp. Windchill Dew Point Humidity Wind Precip. Elev Updated Type